sensor_id;sensor_type;location;lat;lon;timestamp;P1;durP1;ratioP1;P2;durP2;ratioP2
5175;SDS011;2607;50.934;6.934;2023-02-28T00:00:29;2.13;;;1.93;;
5175;SDS011;2607;50.934;6.934;2023-02-28T00:02:56;3.40;;;3.20;;
5175;SDS011;2607;50.934;6.934;2023-02-28T00:05:22;2.90;;;2.80;;
5175;SDS011;2607;50.934;6.934;2023-02-28T00:07:49;2.87;;;2.60;;
5175;SDS011;2607;50.934;6.934;2023-02-28T00:12:45;2.20;;;2.10;;
5175;SDS011;2607;50.934;6.934;2023-02-28T00:15:12;2.53;;;2.33;;
5175;SDS011;2607;50.934;6.934;2023-02-28T00:17:37;2.67;;;2.33;;
5175;SDS011;2607;50.934;6.934;2023-02-28T00:20:04;3.83;;;2.37;;
5175;SDS011;2607;50.934;6.934;2023-02-28T00:22:33;2.23;;;2.10;;
5175;SDS011;2607;50.934;6.934;2023-02-28T00:24:59;2.60;;;2.40;;
5175;SDS011;2607;50.934;6.934;2023-02-28T00:27:25;2.93;;;2.53;;
5175;SDS011;2607;50.934;6.934;2023-02-28T00:29:50;2.40;;;2.30;;
5175;SDS011;2607;50.934;6.934;2023-02-28T00:32:16;3.43;;;2.50;;
5175;SDS011;2607;50.934;6.934;2023-02-28T00:34:43;1.83;;;1.83;;
5175;SDS011;2607;50.934;6.934;2023-02-28T00:37:09;4.73;;;2.50;;
5175;SDS011;2607;50.934;6.934;2023-02-28T00:39:39;2.77;;;2.63;;
5175;SDS011;2607;50.934;6.934;2023-02-28T00:42:05;2.53;;;2.33;;
5175;SDS011;2607;50.934;6.934;2023-02-28T00:44:31;2.40;;;2.30;;
5175;SDS011;2607;50.934;6.934;2023-02-28T00:46:57;2.53;;;2.30;;
5175;SDS011;2607;50.934;6.934;2023-02-28T00:49:24;9.17;;;2.00;;
5175;SDS011;2607;50.934;6.934;2023-02-28T00:51:50;3.00;;;2.17;;
5175;SDS011;2607;50.934;6.934;2023-02-28T00:54:16;6.43;;;2.80;;
5175;SDS011;2607;50.934;6.934;2023-02-28T00:56:41;4.20;;;2.60;;
5175;SDS011;2607;50.934;6.934;2023-02-28T00:59:07;3.43;;;2.13;;
5175;SDS011;2607;50.934;6.934;2023-02-28T01:01:33;2.50;;;2.23;;
5175;SDS011;2607;50.934;6.934;2023-02-28T01:03:59;3.00;;;2.70;;
5175;SDS011;2607;50.934;6.934;2023-02-28T01:06:24;4.43;;;3.93;;
5175;SDS011;2607;50.934;6.934;2023-02-28T01:08:50;2.97;;;2.63;;
5175;SDS011;2607;50.934;6.934;2023-02-28T01:11:16;1.90;;;1.90;;
5175;SDS011;2607;50.934;6.934;2023-02-28T01:13:42;2.10;;;2.00;;
5175;SDS011;2607;50.934;6.934;2023-02-28T01:16:09;2.30;;;2.10;;
5175;SDS011;2607;50.934;6.934;2023-02-28T01:18:35;2.13;;;1.90;;
5175;SDS011;2607;50.934;6.934;2023-02-28T01:21:05;2.27;;;2.03;;
5175;SDS011;2607;50.934;6.934;2023-02-28T01:23:31;2.00;;;1.90;;
5175;SDS011;2607;50.934;6.934;2023-02-28T01:25:58;2.37;;;2.27;;
5175;SDS011;2607;50.934;6.934;2023-02-28T01:28:32;2.40;;;2.20;;
5175;SDS011;2607;50.934;6.934;2023-02-28T01:30:57;2.47;;;2.27;;
5175;SDS011;2607;50.934;6.934;2023-02-28T01:33:23;2.17;;;2.00;;
5175;SDS011;2607;50.934;6.934;2023-02-28T01:35:48;4.80;;;1.70;;
5175;SDS011;2607;50.934;6.934;2023-02-28T01:38:14;3.63;;;2.20;;
5175;SDS011;2607;50.934;6.934;2023-02-28T01:40:40;3.97;;;2.33;;
5175;SDS011;2607;50.934;6.934;2023-02-28T01:43:14;3.17;;;2.20;;
5175;SDS011;2607;50.934;6.934;2023-02-28T01:45:48;4.47;;;2.03;;
5175;SDS011;2607;50.934;6.934;2023-02-28T01:48:14;1.70;;;1.70;;
5175;SDS011;2607;50.934;6.934;2023-02-28T01:50:41;2.20;;;2.10;;
5175;SDS011;2607;50.934;6.934;2023-02-28T01:53:10;2.37;;;2.20;;
5175;SDS011;2607;50.934;6.934;2023-02-28T01:55:41;2.00;;;1.90;;
5175;SDS011;2607;50.934;6.934;2023-02-28T01:58:10;2.43;;;2.33;;
5175;SDS011;2607;50.934;6.934;2023-02-28T02:00:36;1.73;;;1.73;;
5175;SDS011;2607;50.934;6.934;2023-02-28T02:03:07;4.17;;;3.20;;
5175;SDS011;2607;50.934;6.934;2023-02-28T02:05:36;5.77;;;4.20;;
5175;SDS011;2607;50.934;6.934;2023-02-28T02:08:08;3.20;;;3.00;;
5175;SDS011;2607;50.934;6.934;2023-02-28T02:10:42;2.30;;;2.20;;
5175;SDS011;2607;50.934;6.934;2023-02-28T02:13:26;1.97;;;1.97;;
5175;SDS011;2607;50.934;6.934;2023-02-28T02:16:10;2.10;;;2.00;;
5175;SDS011;2607;50.934;6.934;2023-02-28T02:18:50;2.63;;;2.53;;
5175;SDS011;2607;50.934;6.934;2023-02-28T02:21:57;1.93;;;1.83;;
5175;SDS011;2607;50.934;6.934;2023-02-28T02:24:53;2.20;;;1.90;;
5175;SDS011;2607;50.934;6.934;2023-02-28T02:27:46;1.97;;;1.93;;
5175;SDS011;2607;50.934;6.934;2023-02-28T02:33:06;1.90;;;1.80;;
5175;SDS011;2607;50.934;6.934;2023-02-28T02:38:29;3.17;;;2.00;;
5175;SDS011;2607;50.934;6.934;2023-02-28T02:46:43;3.57;;;1.83;;
5175;SDS011;2607;50.934;6.934;2023-02-28T02:49:13;2.23;;;2.10;;
5175;SDS011;2607;50.934;6.934;2023-02-28T02:51:43;2.13;;;2.00;;
5175;SDS011;2607;50.934;6.934;2023-02-28T02:54:15;1.90;;;1.80;;
5175;SDS011;2607;50.934;6.934;2023-02-28T02:56:53;2.03;;;1.93;;
5175;SDS011;2607;50.934;6.934;2023-02-28T02:59:24;1.63;;;1.63;;
5175;SDS011;2607;50.934;6.934;2023-02-28T03:01:52;2.10;;;2.00;;
5175;SDS011;2607;50.934;6.934;2023-02-28T03:04:21;4.47;;;3.57;;
5175;SDS011;2607;50.934;6.934;2023-02-28T03:06:50;5.30;;;3.27;;
5175;SDS011;2607;50.934;6.934;2023-02-28T03:09:20;2.97;;;2.77;;
5175;SDS011;2607;50.934;6.934;2023-02-28T03:11:46;2.40;;;2.30;;
5175;SDS011;2607;50.934;6.934;2023-02-28T03:17:13;1.87;;;1.73;;
5175;SDS011;2607;50.934;6.934;2023-02-28T03:19:54;1.70;;;1.70;;
5175;SDS011;2607;50.934;6.934;2023-02-28T03:25:22;1.80;;;1.70;;
5175;SDS011;2607;50.934;6.934;2023-02-28T03:30:51;1.93;;;1.83;;
5175;SDS011;2607;50.934;6.934;2023-02-28T03:36:34;2.00;;;1.90;;
5175;SDS011;2607;50.934;6.934;2023-02-28T03:39:07;1.90;;;1.80;;
5175;SDS011;2607;50.934;6.934;2023-02-28T03:41:42;3.53;;;2.30;;
5175;SDS011;2607;50.934;6.934;2023-02-28T03:44:17;2.30;;;2.20;;
5175;SDS011;2607;50.934;6.934;2023-02-28T03:46:56;1.90;;;1.80;;
5175;SDS011;2607;50.934;6.934;2023-02-28T03:49:50;1.80;;;1.80;;
5175;SDS011;2607;50.934;6.934;2023-02-28T03:52:21;2.37;;;2.20;;
5175;SDS011;2607;50.934;6.934;2023-02-28T03:54:54;2.10;;;2.00;;
5175;SDS011;2607;50.934;6.934;2023-02-28T03:57:27;1.60;;;1.60;;
5175;SDS011;2607;50.934;6.934;2023-02-28T04:00:00;1.90;;;1.80;;
5175;SDS011;2607;50.934;6.934;2023-02-28T04:02:31;1.53;;;1.53;;
5175;SDS011;2607;50.934;6.934;2023-02-28T04:04:57;2.87;;;2.67;;
5175;SDS011;2607;50.934;6.934;2023-02-28T04:07:24;4.60;;;3.30;;
5175;SDS011;2607;50.934;6.934;2023-02-28T04:09:50;2.20;;;2.00;;
5175;SDS011;2607;50.934;6.934;2023-02-28T04:12:16;2.20;;;2.10;;
5175;SDS011;2607;50.934;6.934;2023-02-28T04:14:42;4.00;;;2.40;;
5175;SDS011;2607;50.934;6.934;2023-02-28T04:17:07;1.80;;;1.80;;
5175;SDS011;2607;50.934;6.934;2023-02-28T04:19:33;2.83;;;2.07;;
5175;SDS011;2607;50.934;6.934;2023-02-28T04:21:58;2.03;;;1.93;;
5175;SDS011;2607;50.934;6.934;2023-02-28T04:24:25;2.13;;;2.03;;
5175;SDS011;2607;50.934;6.934;2023-02-28T04:26:52;2.40;;;2.30;;
5175;SDS011;2607;50.934;6.934;2023-02-28T04:29:21;2.30;;;2.20;;
5175;SDS011;2607;50.934;6.934;2023-02-28T04:31:48;2.03;;;1.93;;
5175;SDS011;2607;50.934;6.934;2023-02-28T04:34:14;2.43;;;2.33;;
5175;SDS011;2607;50.934;6.934;2023-02-28T04:36:39;6.60;;;2.40;;
5175;SDS011;2607;50.934;6.934;2023-02-28T04:39:05;2.30;;;2.10;;
5175;SDS011;2607;50.934;6.934;2023-02-28T04:41:31;1.83;;;1.83;;
5175;SDS011;2607;50.934;6.934;2023-02-28T04:43:57;2.20;;;2.10;;
5175;SDS011;2607;50.934;6.934;2023-02-28T04:46:22;2.57;;;2.47;;
5175;SDS011;2607;50.934;6.934;2023-02-28T04:48:48;2.53;;;2.43;;
5175;SDS011;2607;50.934;6.934;2023-02-28T04:51:15;2.37;;;2.27;;
5175;SDS011;2607;50.934;6.934;2023-02-28T04:53:43;2.50;;;2.40;;
5175;SDS011;2607;50.934;6.934;2023-02-28T04:56:10;2.33;;;2.17;;
5175;SDS011;2607;50.934;6.934;2023-02-28T04:58:38;2.30;;;2.20;;
5175;SDS011;2607;50.934;6.934;2023-02-28T05:01:05;3.10;;;2.17;;
5175;SDS011;2607;50.934;6.934;2023-02-28T05:03:38;3.10;;;2.90;;
5175;SDS011;2607;50.934;6.934;2023-02-28T05:06:05;2.00;;;1.90;;
5175;SDS011;2607;50.934;6.934;2023-02-28T05:08:32;1.83;;;1.73;;
5175;SDS011;2607;50.934;6.934;2023-02-28T05:10:58;3.23;;;2.40;;
5175;SDS011;2607;50.934;6.934;2023-02-28T05:13:25;1.87;;;1.87;;
5175;SDS011;2607;50.934;6.934;2023-02-28T05:15:52;1.80;;;1.80;;
5175;SDS011;2607;50.934;6.934;2023-02-28T05:18:17;2.13;;;2.03;;
5175;SDS011;2607;50.934;6.934;2023-02-28T05:20:43;2.87;;;2.60;;
5175;SDS011;2607;50.934;6.934;2023-02-28T05:23:10;1.87;;;1.77;;
5175;SDS011;2607;50.934;6.934;2023-02-28T05:25:37;1.97;;;1.87;;
5175;SDS011;2607;50.934;6.934;2023-02-28T05:28:03;2.97;;;2.77;;
5175;SDS011;2607;50.934;6.934;2023-02-28T05:30:29;2.03;;;2.03;;
5175;SDS011;2607;50.934;6.934;2023-02-28T05:32:54;1.90;;;1.90;;
5175;SDS011;2607;50.934;6.934;2023-02-28T05:35:20;8.83;;;1.90;;
5175;SDS011;2607;50.934;6.934;2023-02-28T05:37:46;2.40;;;2.30;;
5175;SDS011;2607;50.934;6.934;2023-02-28T05:40:11;2.10;;;2.00;;
5175;SDS011;2607;50.934;6.934;2023-02-28T05:42:37;4.17;;;2.00;;
5175;SDS011;2607;50.934;6.934;2023-02-28T05:45:03;4.80;;;2.00;;
5175;SDS011;2607;50.934;6.934;2023-02-28T05:47:30;2.23;;;2.13;;
5175;SDS011;2607;50.934;6.934;2023-02-28T05:49:55;7.23;;;1.93;;
5175;SDS011;2607;50.934;6.934;2023-02-28T05:52:21;2.37;;;2.27;;
5175;SDS011;2607;50.934;6.934;2023-02-28T05:54:47;2.90;;;2.00;;
5175;SDS011;2607;50.934;6.934;2023-02-28T05:57:12;2.30;;;2.10;;
5175;SDS011;2607;50.934;6.934;2023-02-28T05:59:38;2.53;;;2.33;;
5175;SDS011;2607;50.934;6.934;2023-02-28T06:02:05;2.30;;;2.20;;
5175;SDS011;2607;50.934;6.934;2023-02-28T06:04:36;1.90;;;1.80;;
5175;SDS011;2607;50.934;6.934;2023-02-28T06:07:02;2.37;;;2.27;;
5175;SDS011;2607;50.934;6.934;2023-02-28T06:09:28;3.43;;;3.13;;
5175;SDS011;2607;50.934;6.934;2023-02-28T06:11:53;3.10;;;2.90;;
5175;SDS011;2607;50.934;6.934;2023-02-28T06:14:19;2.73;;;2.53;;
5175;SDS011;2607;50.934;6.934;2023-02-28T06:16:46;2.33;;;2.13;;
5175;SDS011;2607;50.934;6.934;2023-02-28T06:19:11;2.07;;;2.07;;
5175;SDS011;2607;50.934;6.934;2023-02-28T06:21:37;2.53;;;2.00;;
5175;SDS011;2607;50.934;6.934;2023-02-28T06:24:03;2.00;;;2.00;;
5175;SDS011;2607;50.934;6.934;2023-02-28T06:26:29;2.00;;;1.90;;
5175;SDS011;2607;50.934;6.934;2023-02-28T06:28:55;2.10;;;2.07;;
5175;SDS011;2607;50.934;6.934;2023-02-28T06:31:21;2.20;;;2.10;;
5175;SDS011;2607;50.934;6.934;2023-02-28T06:33:48;1.90;;;1.90;;
5175;SDS011;2607;50.934;6.934;2023-02-28T06:36:15;2.13;;;2.03;;
5175;SDS011;2607;50.934;6.934;2023-02-28T06:38:41;2.50;;;2.30;;
5175;SDS011;2607;50.934;6.934;2023-02-28T06:41:07;2.50;;;2.30;;
5175;SDS011;2607;50.934;6.934;2023-02-28T06:43:35;4.13;;;2.03;;
5175;SDS011;2607;50.934;6.934;2023-02-28T06:46:05;2.40;;;2.30;;
5175;SDS011;2607;50.934;6.934;2023-02-28T06:48:32;1.83;;;1.73;;
5175;SDS011;2607;50.934;6.934;2023-02-28T06:51:04;2.40;;;2.30;;
5175;SDS011;2607;50.934;6.934;2023-02-28T06:53:31;1.97;;;1.87;;
5175;SDS011;2607;50.934;6.934;2023-02-28T06:55:56;2.07;;;2.07;;
5175;SDS011;2607;50.934;6.934;2023-02-28T06:58:22;2.90;;;2.70;;
5175;SDS011;2607;50.934;6.934;2023-02-28T07:00:50;2.53;;;2.33;;
5175;SDS011;2607;50.934;6.934;2023-02-28T07:03:17;1.87;;;1.87;;
5175;SDS011;2607;50.934;6.934;2023-02-28T07:05:43;2.00;;;1.90;;
5175;SDS011;2607;50.934;6.934;2023-02-28T07:08:09;2.77;;;2.57;;
5175;SDS011;2607;50.934;6.934;2023-02-28T07:10:37;2.53;;;2.43;;
5175;SDS011;2607;50.934;6.934;2023-02-28T07:13:03;2.30;;;2.20;;
5175;SDS011;2607;50.934;6.934;2023-02-28T07:15:29;2.73;;;2.63;;
5175;SDS011;2607;50.934;6.934;2023-02-28T07:17:55;6.73;;;3.17;;
5175;SDS011;2607;50.934;6.934;2023-02-28T07:20:21;2.40;;;2.30;;
5175;SDS011;2607;50.934;6.934;2023-02-28T07:22:48;2.37;;;2.17;;
5175;SDS011;2607;50.934;6.934;2023-02-28T07:25:20;5.03;;;2.40;;
5175;SDS011;2607;50.934;6.934;2023-02-28T07:27:50;2.03;;;2.03;;
5175;SDS011;2607;50.934;6.934;2023-02-28T07:30:15;14.43;;;2.60;;
5175;SDS011;2607;50.934;6.934;2023-02-28T07:32:41;2.40;;;2.30;;
5175;SDS011;2607;50.934;6.934;2023-02-28T07:35:07;2.20;;;2.10;;
5175;SDS011;2607;50.934;6.934;2023-02-28T07:37:33;2.90;;;2.60;;
5175;SDS011;2607;50.934;6.934;2023-02-28T07:40:02;2.30;;;2.20;;
5175;SDS011;2607;50.934;6.934;2023-02-28T07:42:33;2.50;;;2.40;;
5175;SDS011;2607;50.934;6.934;2023-02-28T07:45:02;2.90;;;2.80;;
5175;SDS011;2607;50.934;6.934;2023-02-28T07:47:29;2.27;;;2.17;;
5175;SDS011;2607;50.934;6.934;2023-02-28T07:49:55;3.10;;;2.57;;
5175;SDS011;2607;50.934;6.934;2023-02-28T07:52:21;3.00;;;2.50;;
5175;SDS011;2607;50.934;6.934;2023-02-28T07:54:49;2.40;;;2.30;;
5175;SDS011;2607;50.934;6.934;2023-02-28T07:57:15;2.30;;;2.20;;
5175;SDS011;2607;50.934;6.934;2023-02-28T07:59:41;2.20;;;2.10;;
5175;SDS011;2607;50.934;6.934;2023-02-28T08:02:14;2.20;;;2.10;;
5175;SDS011;2607;50.934;6.934;2023-02-28T08:04:43;2.40;;;2.20;;
5175;SDS011;2607;50.934;6.934;2023-02-28T08:07:09;2.30;;;2.20;;
5175;SDS011;2607;50.934;6.934;2023-02-28T08:09:38;2.80;;;2.60;;
5175;SDS011;2607;50.934;6.934;2023-02-28T08:12:04;2.20;;;2.20;;
5175;SDS011;2607;50.934;6.934;2023-02-28T08:14:30;1.70;;;1.70;;
5175;SDS011;2607;50.934;6.934;2023-02-28T08:16:55;2.27;;;2.17;;
5175;SDS011;2607;50.934;6.934;2023-02-28T08:19:21;1.57;;;1.57;;
5175;SDS011;2607;50.934;6.934;2023-02-28T08:21:46;3.13;;;2.17;;
5175;SDS011;2607;50.934;6.934;2023-02-28T08:24:12;1.67;;;1.67;;
5175;SDS011;2607;50.934;6.934;2023-02-28T08:26:37;2.20;;;2.10;;
5175;SDS011;2607;50.934;6.934;2023-02-28T08:29:03;2.37;;;2.17;;
5175;SDS011;2607;50.934;6.934;2023-02-28T08:31:28;4.00;;;2.00;;
5175;SDS011;2607;50.934;6.934;2023-02-28T08:33:54;2.30;;;2.10;;
5175;SDS011;2607;50.934;6.934;2023-02-28T08:36:23;2.40;;;2.17;;
5175;SDS011;2607;50.934;6.934;2023-02-28T08:38:49;1.70;;;1.60;;
5175;SDS011;2607;50.934;6.934;2023-02-28T08:41:15;1.90;;;1.80;;
5175;SDS011;2607;50.934;6.934;2023-02-28T08:43:40;1.90;;;1.90;;
5175;SDS011;2607;50.934;6.934;2023-02-28T08:46:06;1.97;;;1.97;;
5175;SDS011;2607;50.934;6.934;2023-02-28T08:48:33;2.00;;;1.90;;
5175;SDS011;2607;50.934;6.934;2023-02-28T08:51:04;1.70;;;1.70;;
5175;SDS011;2607;50.934;6.934;2023-02-28T08:53:35;2.07;;;1.90;;
5175;SDS011;2607;50.934;6.934;2023-02-28T08:56:03;2.50;;;1.73;;
5175;SDS011;2607;50.934;6.934;2023-02-28T08:58:34;1.80;;;1.57;;
5175;SDS011;2607;50.934;6.934;2023-02-28T09:01:00;1.80;;;1.80;;
5175;SDS011;2607;50.934;6.934;2023-02-28T09:03:31;1.67;;;1.67;;
5175;SDS011;2607;50.934;6.934;2023-02-28T09:05:58;1.40;;;1.40;;
5175;SDS011;2607;50.934;6.934;2023-02-28T09:08:25;5.00;;;1.63;;
5175;SDS011;2607;50.934;6.934;2023-02-28T09:10:52;1.77;;;1.67;;
5175;SDS011;2607;50.934;6.934;2023-02-28T09:13:19;1.40;;;1.40;;
5175;SDS011;2607;50.934;6.934;2023-02-28T09:15:45;1.37;;;1.33;;
5175;SDS011;2607;50.934;6.934;2023-02-28T09:18:11;2.30;;;1.33;;
5175;SDS011;2607;50.934;6.934;2023-02-28T09:20:38;1.80;;;1.70;;
5175;SDS011;2607;50.934;6.934;2023-02-28T09:23:04;2.03;;;1.50;;
5175;SDS011;2607;50.934;6.934;2023-02-28T09:25:31;1.50;;;1.43;;
5175;SDS011;2607;50.934;6.934;2023-02-28T09:27:56;1.83;;;1.20;;
5175;SDS011;2607;50.934;6.934;2023-02-28T09:30:22;1.70;;;1.60;;
5175;SDS011;2607;50.934;6.934;2023-02-28T09:32:47;1.57;;;1.53;;
5175;SDS011;2607;50.934;6.934;2023-02-28T09:35:20;1.50;;;1.50;;
5175;SDS011;2607;50.934;6.934;2023-02-28T09:37:50;1.23;;;1.23;;
5175;SDS011;2607;50.934;6.934;2023-02-28T09:40:17;1.40;;;1.30;;
5175;SDS011;2607;50.934;6.934;2023-02-28T09:42:47;1.70;;;1.70;;
5175;SDS011;2607;50.934;6.934;2023-02-28T09:48:03;1.50;;;1.40;;
5175;SDS011;2607;50.934;6.934;2023-02-28T09:50:36;1.53;;;1.53;;
5175;SDS011;2607;50.934;6.934;2023-02-28T09:53:13;1.47;;;1.37;;
5175;SDS011;2607;50.934;6.934;2023-02-28T09:55:45;2.47;;;1.40;;
5175;SDS011;2607;50.934;6.934;2023-02-28T10:01:06;2.47;;;1.27;;
5175;SDS011;2607;50.934;6.934;2023-02-28T10:06:20;1.70;;;1.30;;
5175;SDS011;2607;50.934;6.934;2023-02-28T10:09:00;1.50;;;1.50;;
5175;SDS011;2607;50.934;6.934;2023-02-28T10:11:28;1.37;;;1.37;;
5175;SDS011;2607;50.934;6.934;2023-02-28T10:16:45;1.90;;;1.87;;
5175;SDS011;2607;50.934;6.934;2023-02-28T10:19:28;1.57;;;1.47;;
5175;SDS011;2607;50.934;6.934;2023-02-28T10:22:08;1.77;;;1.67;;
5175;SDS011;2607;50.934;6.934;2023-02-28T10:24:42;1.50;;;1.50;;
5175;SDS011;2607;50.934;6.934;2023-02-28T10:29:40;1.63;;;1.50;;
5175;SDS011;2607;50.934;6.934;2023-02-28T10:32:08;1.50;;;1.50;;
5175;SDS011;2607;50.934;6.934;2023-02-28T10:34:39;1.20;;;1.20;;
5175;SDS011;2607;50.934;6.934;2023-02-28T10:37:04;1.73;;;1.70;;
5175;SDS011;2607;50.934;6.934;2023-02-28T10:39:38;1.83;;;1.70;;
5175;SDS011;2607;50.934;6.934;2023-02-28T10:42:22;2.07;;;1.97;;
5175;SDS011;2607;50.934;6.934;2023-02-28T10:47:37;1.80;;;1.40;;
5175;SDS011;2607;50.934;6.934;2023-02-28T10:50:29;1.90;;;1.90;;
5175;SDS011;2607;50.934;6.934;2023-02-28T10:53:14;1.63;;;1.57;;
5175;SDS011;2607;50.934;6.934;2023-02-28T10:58:24;2.23;;;2.03;;
5175;SDS011;2607;50.934;6.934;2023-02-28T11:00:52;2.10;;;2.00;;
5175;SDS011;2607;50.934;6.934;2023-02-28T11:05:50;4.80;;;4.37;;
5175;SDS011;2607;50.934;6.934;2023-02-28T11:08:17;4.40;;;3.50;;
5175;SDS011;2607;50.934;6.934;2023-02-28T11:10:47;4.73;;;2.93;;
5175;SDS011;2607;50.934;6.934;2023-02-28T11:13:33;3.20;;;2.90;;
5175;SDS011;2607;50.934;6.934;2023-02-28T11:16:02;2.73;;;2.63;;
5175;SDS011;2607;50.934;6.934;2023-02-28T11:18:38;2.73;;;2.50;;
5175;SDS011;2607;50.934;6.934;2023-02-28T11:21:09;2.20;;;2.10;;
5175;SDS011;2607;50.934;6.934;2023-02-28T11:23:42;2.90;;;2.70;;
5175;SDS011;2607;50.934;6.934;2023-02-28T11:26:08;2.23;;;2.13;;
5175;SDS011;2607;50.934;6.934;2023-02-28T11:28:37;3.00;;;2.70;;
5175;SDS011;2607;50.934;6.934;2023-02-28T11:31:09;2.97;;;2.30;;
5175;SDS011;2607;50.934;6.934;2023-02-28T11:33:51;3.90;;;2.47;;
5175;SDS011;2607;50.934;6.934;2023-02-28T11:36:26;6.50;;;3.20;;
5175;SDS011;2607;50.934;6.934;2023-02-28T11:38:55;2.23;;;2.10;;
5175;SDS011;2607;50.934;6.934;2023-02-28T11:44:32;2.30;;;2.20;;
5175;SDS011;2607;50.934;6.934;2023-02-28T11:47:23;2.70;;;2.57;;
5175;SDS011;2607;50.934;6.934;2023-02-28T11:52:56;2.57;;;2.47;;
5175;SDS011;2607;50.934;6.934;2023-02-28T11:58:23;4.43;;;2.43;;
5175;SDS011;2607;50.934;6.934;2023-02-28T12:01:36;2.10;;;2.00;;
5175;SDS011;2607;50.934;6.934;2023-02-28T12:07:29;2.80;;;2.60;;
5175;SDS011;2607;50.934;6.934;2023-02-28T12:10:09;3.17;;;1.97;;
5175;SDS011;2607;50.934;6.934;2023-02-28T12:13:00;3.07;;;2.93;;
5175;SDS011;2607;50.934;6.934;2023-02-28T12:21:01;2.63;;;2.43;;
5175;SDS011;2607;50.934;6.934;2023-02-28T12:23:42;2.47;;;2.37;;
5175;SDS011;2607;50.934;6.934;2023-02-28T12:26:19;2.67;;;2.47;;
5175;SDS011;2607;50.934;6.934;2023-02-28T12:28:49;2.50;;;2.30;;
5175;SDS011;2607;50.934;6.934;2023-02-28T12:31:24;2.10;;;2.00;;
5175;SDS011;2607;50.934;6.934;2023-02-28T12:33:54;2.60;;;2.27;;
5175;SDS011;2607;50.934;6.934;2023-02-28T12:36:26;2.50;;;2.40;;
5175;SDS011;2607;50.934;6.934;2023-02-28T12:39:40;2.70;;;2.50;;
5175;SDS011;2607;50.934;6.934;2023-02-28T12:41:47;2.50;;;2.30;;
5175;SDS011;2607;50.934;6.934;2023-02-28T12:44:28;2.60;;;2.50;;
5175;SDS011;2607;50.934;6.934;2023-02-28T12:46:59;2.40;;;2.30;;
5175;SDS011;2607;50.934;6.934;2023-02-28T12:49:31;2.53;;;2.43;;
5175;SDS011;2607;50.934;6.934;2023-02-28T12:52:02;2.70;;;2.57;;
5175;SDS011;2607;50.934;6.934;2023-02-28T12:59:51;2.63;;;2.43;;
5175;SDS011;2607;50.934;6.934;2023-02-28T13:10:52;3.10;;;2.73;;
5175;SDS011;2607;50.934;6.934;2023-02-28T13:13:21;2.73;;;2.63;;
5175;SDS011;2607;50.934;6.934;2023-02-28T13:16:03;3.73;;;2.60;;
5175;SDS011;2607;50.934;6.934;2023-02-28T13:18:42;3.00;;;2.80;;
5175;SDS011;2607;50.934;6.934;2023-02-28T13:21:09;2.90;;;2.80;;
5175;SDS011;2607;50.934;6.934;2023-02-28T13:26:22;2.87;;;2.67;;
5175;SDS011;2607;50.934;6.934;2023-02-28T13:31:13;3.30;;;3.10;;
5175;SDS011;2607;50.934;6.934;2023-02-28T13:36:27;2.70;;;2.50;;
5175;SDS011;2607;50.934;6.934;2023-02-28T13:39:03;2.47;;;2.37;;
5175;SDS011;2607;50.934;6.934;2023-02-28T13:47:28;4.10;;;3.80;;
5175;SDS011;2607;50.934;6.934;2023-02-28T13:58:33;2.67;;;2.57;;
5175;SDS011;2607;50.934;6.934;2023-02-28T14:06:58;2.80;;;2.70;;
5175;SDS011;2607;50.934;6.934;2023-02-28T14:09:27;2.63;;;2.53;;
5175;SDS011;2607;50.934;6.934;2023-02-28T14:15:01;3.17;;;2.97;;
5175;SDS011;2607;50.934;6.934;2023-02-28T14:17:30;3.13;;;3.03;;
5175;SDS011;2607;50.934;6.934;2023-02-28T14:19:56;3.20;;;2.80;;
5175;SDS011;2607;50.934;6.934;2023-02-28T14:25:05;2.60;;;2.50;;
5175;SDS011;2607;50.934;6.934;2023-02-28T14:30:45;2.80;;;2.60;;
5175;SDS011;2607;50.934;6.934;2023-02-28T14:33:38;2.63;;;2.53;;
5175;SDS011;2607;50.934;6.934;2023-02-28T14:36:16;2.87;;;2.67;;
5175;SDS011;2607;50.934;6.934;2023-02-28T14:38:57;2.40;;;2.30;;
5175;SDS011;2607;50.934;6.934;2023-02-28T14:41:30;2.93;;;2.83;;
5175;SDS011;2607;50.934;6.934;2023-02-28T14:44:01;3.57;;;3.20;;
5175;SDS011;2607;50.934;6.934;2023-02-28T14:46:38;4.20;;;3.83;;
5175;SDS011;2607;50.934;6.934;2023-02-28T14:49:06;4.67;;;4.27;;
5175;SDS011;2607;50.934;6.934;2023-02-28T14:51:37;3.83;;;3.53;;
5175;SDS011;2607;50.934;6.934;2023-02-28T14:54:03;5.07;;;4.67;;
5175;SDS011;2607;50.934;6.934;2023-02-28T14:56:38;7.80;;;4.10;;
5175;SDS011;2607;50.934;6.934;2023-02-28T14:59:05;5.30;;;4.13;;
5175;SDS011;2607;50.934;6.934;2023-02-28T15:01:47;3.83;;;3.10;;
5175;SDS011;2607;50.934;6.934;2023-02-28T15:04:16;3.47;;;3.27;;
5175;SDS011;2607;50.934;6.934;2023-02-28T15:07:06;3.23;;;3.03;;
5175;SDS011;2607;50.934;6.934;2023-02-28T15:09:37;3.03;;;2.83;;
5175;SDS011;2607;50.934;6.934;2023-02-28T15:12:03;3.10;;;2.90;;
5175;SDS011;2607;50.934;6.934;2023-02-28T15:14:29;2.97;;;2.77;;
5175;SDS011;2607;50.934;6.934;2023-02-28T15:16:59;3.70;;;3.00;;
5175;SDS011;2607;50.934;6.934;2023-02-28T15:19:30;3.27;;;3.07;;
5175;SDS011;2607;50.934;6.934;2023-02-28T15:22:00;3.27;;;2.97;;
5175;SDS011;2607;50.934;6.934;2023-02-28T15:27:07;2.97;;;2.87;;
5175;SDS011;2607;50.934;6.934;2023-02-28T15:29:45;4.90;;;3.80;;
5175;SDS011;2607;50.934;6.934;2023-02-28T15:32:28;3.83;;;3.43;;
5175;SDS011;2607;50.934;6.934;2023-02-28T15:34:56;2.63;;;2.43;;
5175;SDS011;2607;50.934;6.934;2023-02-28T15:37:25;5.90;;;3.20;;
5175;SDS011;2607;50.934;6.934;2023-02-28T15:39:52;2.87;;;2.70;;
5175;SDS011;2607;50.934;6.934;2023-02-28T15:42:20;3.50;;;3.30;;
5175;SDS011;2607;50.934;6.934;2023-02-28T15:44:47;2.70;;;2.53;;
5175;SDS011;2607;50.934;6.934;2023-02-28T15:47:19;2.90;;;2.70;;
5175;SDS011;2607;50.934;6.934;2023-02-28T15:52:33;4.23;;;3.93;;
5175;SDS011;2607;50.934;6.934;2023-02-28T15:55:08;4.30;;;3.80;;
5175;SDS011;2607;50.934;6.934;2023-02-28T15:57:41;5.90;;;4.10;;
5175;SDS011;2607;50.934;6.934;2023-02-28T16:00:09;4.43;;;4.03;;
5175;SDS011;2607;50.934;6.934;2023-02-28T16:02:40;3.40;;;3.20;;
5175;SDS011;2607;50.934;6.934;2023-02-28T16:07:36;4.63;;;3.80;;
5175;SDS011;2607;50.934;6.934;2023-02-28T16:10:06;9.43;;;5.00;;
5175;SDS011;2607;50.934;6.934;2023-02-28T16:12:33;3.70;;;3.40;;
5175;SDS011;2607;50.934;6.934;2023-02-28T16:17:51;3.10;;;2.90;;
5175;SDS011;2607;50.934;6.934;2023-02-28T16:20:21;2.80;;;2.60;;
5175;SDS011;2607;50.934;6.934;2023-02-28T16:22:49;4.80;;;3.50;;
5175;SDS011;2607;50.934;6.934;2023-02-28T16:25:26;3.77;;;3.57;;
5175;SDS011;2607;50.934;6.934;2023-02-28T16:27:59;3.10;;;3.00;;
5175;SDS011;2607;50.934;6.934;2023-02-28T16:30:26;5.33;;;3.60;;
5175;SDS011;2607;50.934;6.934;2023-02-28T16:32:56;3.63;;;3.33;;
5175;SDS011;2607;50.934;6.934;2023-02-28T16:35:23;2.83;;;2.73;;
5175;SDS011;2607;50.934;6.934;2023-02-28T16:37:50;3.20;;;3.00;;
5175;SDS011;2607;50.934;6.934;2023-02-28T16:40:21;11.60;;;3.47;;
5175;SDS011;2607;50.934;6.934;2023-02-28T16:42:48;3.30;;;3.10;;
5175;SDS011;2607;50.934;6.934;2023-02-28T16:45:18;2.63;;;2.53;;
5175;SDS011;2607;50.934;6.934;2023-02-28T16:47:49;2.73;;;2.53;;
5175;SDS011;2607;50.934;6.934;2023-02-28T16:50:16;5.37;;;3.20;;
5175;SDS011;2607;50.934;6.934;2023-02-28T16:52:43;4.03;;;3.10;;
5175;SDS011;2607;50.934;6.934;2023-02-28T16:55:09;4.27;;;4.00;;
5175;SDS011;2607;50.934;6.934;2023-02-28T16:57:35;6.30;;;3.90;;
5175;SDS011;2607;50.934;6.934;2023-02-28T17:00:02;3.57;;;3.37;;
5175;SDS011;2607;50.934;6.934;2023-02-28T17:02:29;3.60;;;3.40;;
5175;SDS011;2607;50.934;6.934;2023-02-28T17:04:55;7.00;;;6.40;;
5175;SDS011;2607;50.934;6.934;2023-02-28T17:07:20;3.97;;;3.67;;
5175;SDS011;2607;50.934;6.934;2023-02-28T17:09:46;3.70;;;3.40;;
5175;SDS011;2607;50.934;6.934;2023-02-28T17:12:11;3.57;;;3.27;;
5175;SDS011;2607;50.934;6.934;2023-02-28T17:14:37;3.80;;;3.60;;
5175;SDS011;2607;50.934;6.934;2023-02-28T17:17:04;4.07;;;3.77;;
5175;SDS011;2607;50.934;6.934;2023-02-28T17:19:30;3.30;;;2.90;;
5175;SDS011;2607;50.934;6.934;2023-02-28T17:21:56;5.43;;;2.93;;
5175;SDS011;2607;50.934;6.934;2023-02-28T17:24:21;3.50;;;3.30;;
5175;SDS011;2607;50.934;6.934;2023-02-28T17:26:47;3.30;;;3.10;;
5175;SDS011;2607;50.934;6.934;2023-02-28T17:29:14;3.80;;;3.53;;
5175;SDS011;2607;50.934;6.934;2023-02-28T17:31:42;3.93;;;3.63;;
5175;SDS011;2607;50.934;6.934;2023-02-28T17:34:08;3.47;;;3.27;;
5175;SDS011;2607;50.934;6.934;2023-02-28T17:36:34;3.90;;;3.60;;